sensor_id;sensor_type;location;lat;lon;timestamp;P1;durP1;ratioP1;P2;durP2;ratioP2
19547;SDS011;9919;58.014;11.826;2022-07-01T00:00:09;1.33;;;1.23;;
19547;SDS011;9919;58.014;11.826;2022-07-01T00:02:11;1.85;;;1.25;;
19547;SDS011;9919;58.014;11.826;2022-07-01T00:04:13;1.45;;;1.35;;
19547;SDS011;9919;58.014;11.826;2022-07-01T00:06:15;1.27;;;1.20;;
19547;SDS011;9919;58.014;11.826;2022-07-01T00:08:17;0.98;;;0.98;;
19547;SDS011;9919;58.014;11.826;2022-07-01T00:10:19;1.25;;;1.20;;
19547;SDS011;9919;58.014;11.826;2022-07-01T00:12:20;1.17;;;1.17;;
19547;SDS011;9919;58.014;11.826;2022-07-01T00:14:21;1.10;;;1.10;;
19547;SDS011;9919;58.014;11.826;2022-07-01T00:16:23;1.58;;;1.48;;
19547;SDS011;9919;58.014;11.826;2022-07-01T00:18:24;1.48;;;1.30;;
19547;SDS011;9919;58.014;11.826;2022-07-01T00:20:25;1.10;;;1.10;;
19547;SDS011;9919;58.014;11.826;2022-07-01T00:22:26;1.48;;;1.38;;
19547;SDS011;9919;58.014;11.826;2022-07-01T00:24:28;1.40;;;1.30;;
19547;SDS011;9919;58.014;11.826;2022-07-01T00:26:29;1.33;;;1.23;;
19547;SDS011;9919;58.014;11.826;2022-07-01T00:28:31;1.88;;;1.30;;
19547;SDS011;9919;58.014;11.826;2022-07-01T00:30:33;1.10;;;1.10;;
19547;SDS011;9919;58.014;11.826;2022-07-01T00:32:34;1.73;;;1.38;;
19547;SDS011;9919;58.014;11.826;2022-07-01T00:34:36;1.40;;;1.30;;
19547;SDS011;9919;58.014;11.826;2022-07-01T00:36:38;2.25;;;1.33;;
19547;SDS011;9919;58.014;11.826;2022-07-01T00:38:40;1.52;;;1.40;;
19547;SDS011;9919;58.014;11.826;2022-07-01T00:40:41;1.77;;;1.67;;
19547;SDS011;9919;58.014;11.826;2022-07-01T00:42:42;1.23;;;1.20;;
19547;SDS011;9919;58.014;11.826;2022-07-01T00:44:44;1.17;;;0.98;;
19547;SDS011;9919;58.014;11.826;2022-07-01T00:46:45;1.00;;;1.00;;
19547;SDS011;9919;58.014;11.826;2022-07-01T00:48:49;1.77;;;0.95;;
19547;SDS011;9919;58.014;11.826;2022-07-01T00:50:52;1.58;;;1.30;;
19547;SDS011;9919;58.014;11.826;2022-07-01T00:52:53;1.40;;;1.38;;
19547;SDS011;9919;58.014;11.826;2022-07-01T00:54:55;1.42;;;1.33;;
19547;SDS011;9919;58.014;11.826;2022-07-01T00:56:57;1.33;;;1.30;;
19547;SDS011;9919;58.014;11.826;2022-07-01T00:58:58;1.23;;;1.23;;
19547;SDS011;9919;58.014;11.826;2022-07-01T01:01:00;1.05;;;1.00;;
19547;SDS011;9919;58.014;11.826;2022-07-01T01:03:01;1.08;;;1.08;;
19547;SDS011;9919;58.014;11.826;2022-07-01T01:05:03;2.17;;;1.63;;
19547;SDS011;9919;58.014;11.826;2022-07-01T01:07:05;1.30;;;1.20;;
19547;SDS011;9919;58.014;11.826;2022-07-01T01:09:07;1.20;;;1.20;;
19547;SDS011;9919;58.014;11.826;2022-07-01T01:11:08;1.60;;;1.50;;
19547;SDS011;9919;58.014;11.826;2022-07-01T01:13:09;1.13;;;1.10;;
19547;SDS011;9919;58.014;11.826;2022-07-01T01:15:18;1.17;;;1.17;;
19547;SDS011;9919;58.014;11.826;2022-07-01T01:17:20;1.40;;;1.38;;
19547;SDS011;9919;58.014;11.826;2022-07-01T01:19:24;2.00;;;1.70;;
19547;SDS011;9919;58.014;11.826;2022-07-01T01:21:26;1.23;;;1.20;;
19547;SDS011;9919;58.014;11.826;2022-07-01T01:23:27;1.10;;;1.10;;
19547;SDS011;9919;58.014;11.826;2022-07-01T01:25:29;1.15;;;1.15;;
19547;SDS011;9919;58.014;11.826;2022-07-01T01:27:33;1.38;;;1.27;;
19547;SDS011;9919;58.014;11.826;2022-07-01T01:29:35;1.35;;;1.25;;
19547;SDS011;9919;58.014;11.826;2022-07-01T01:31:37;1.92;;;1.60;;
19547;SDS011;9919;58.014;11.826;2022-07-01T01:33:38;1.33;;;1.33;;
19547;SDS011;9919;58.014;11.826;2022-07-01T01:35:40;1.48;;;1.38;;
19547;SDS011;9919;58.014;11.826;2022-07-01T01:37:42;1.75;;;1.30;;
19547;SDS011;9919;58.014;11.826;2022-07-01T01:39:44;1.15;;;1.15;;
19547;SDS011;9919;58.014;11.826;2022-07-01T01:41:45;1.30;;;1.30;;
19547;SDS011;9919;58.014;11.826;2022-07-01T01:43:47;2.47;;;1.60;;
19547;SDS011;9919;58.014;11.826;2022-07-01T01:45:48;1.60;;;1.50;;
19547;SDS011;9919;58.014;11.826;2022-07-01T01:47:49;1.40;;;1.40;;
19547;SDS011;9919;58.014;11.826;2022-07-01T01:49:51;1.08;;;1.08;;
19547;SDS011;9919;58.014;11.826;2022-07-01T01:51:52;1.50;;;1.30;;
19547;SDS011;9919;58.014;11.826;2022-07-01T01:53:54;1.70;;;1.60;;
19547;SDS011;9919;58.014;11.826;2022-07-01T01:55:56;1.92;;;1.60;;
19547;SDS011;9919;58.014;11.826;2022-07-01T01:57:57;2.08;;;1.55;;
19547;SDS011;9919;58.014;11.826;2022-07-01T01:59:58;2.65;;;1.50;;
19547;SDS011;9919;58.014;11.826;2022-07-01T02:02:00;1.45;;;1.35;;
19547;SDS011;9919;58.014;11.826;2022-07-01T02:04:02;1.63;;;1.52;;
19547;SDS011;9919;58.014;11.826;2022-07-01T02:06:04;1.40;;;1.40;;
19547;SDS011;9919;58.014;11.826;2022-07-01T02:08:05;1.00;;;1.00;;
19547;SDS011;9919;58.014;11.826;2022-07-01T02:10:07;1.20;;;1.20;;
19547;SDS011;9919;58.014;11.826;2022-07-01T02:12:08;1.20;;;1.10;;
19547;SDS011;9919;58.014;11.826;2022-07-01T02:14:10;1.20;;;1.13;;
19547;SDS011;9919;58.014;11.826;2022-07-01T02:16:11;1.10;;;1.10;;
19547;SDS011;9919;58.014;11.826;2022-07-01T02:18:12;1.20;;;1.20;;
19547;SDS011;9919;58.014;11.826;2022-07-01T02:20:14;1.70;;;1.60;;
19547;SDS011;9919;58.014;11.826;2022-07-01T02:22:16;3.67;;;1.30;;
19547;SDS011;9919;58.014;11.826;2022-07-01T02:24:18;1.23;;;1.20;;
19547;SDS011;9919;58.014;11.826;2022-07-01T02:26:19;1.23;;;1.20;;
19547;SDS011;9919;58.014;11.826;2022-07-01T02:28:21;1.55;;;1.45;;
19547;SDS011;9919;58.014;11.826;2022-07-01T02:30:22;1.40;;;1.30;;
19547;SDS011;9919;58.014;11.826;2022-07-01T02:32:23;1.40;;;1.30;;
19547;SDS011;9919;58.014;11.826;2022-07-01T02:34:24;1.50;;;1.42;;
19547;SDS011;9919;58.014;11.826;2022-07-01T02:36:26;1.77;;;1.48;;
19547;SDS011;9919;58.014;11.826;2022-07-01T02:38:28;1.40;;;1.20;;
19547;SDS011;9919;58.014;11.826;2022-07-01T02:40:29;1.58;;;1.48;;
19547;SDS011;9919;58.014;11.826;2022-07-01T02:42:31;1.75;;;1.50;;
19547;SDS011;9919;58.014;11.826;2022-07-01T02:44:35;1.40;;;1.30;;
19547;SDS011;9919;58.014;11.826;2022-07-01T02:46:37;1.60;;;1.50;;
19547;SDS011;9919;58.014;11.826;2022-07-01T02:48:38;3.00;;;1.80;;
19547;SDS011;9919;58.014;11.826;2022-07-01T02:50:41;1.40;;;1.30;;
19547;SDS011;9919;58.014;11.826;2022-07-01T02:52:42;1.65;;;1.58;;
19547;SDS011;9919;58.014;11.826;2022-07-01T02:54:44;1.65;;;1.58;;
19547;SDS011;9919;58.014;11.826;2022-07-01T02:56:45;1.70;;;1.60;;
19547;SDS011;9919;58.014;11.826;2022-07-01T02:58:46;1.60;;;1.50;;
19547;SDS011;9919;58.014;11.826;2022-07-01T03:00:47;1.50;;;1.40;;
19547;SDS011;9919;58.014;11.826;2022-07-01T03:02:52;1.48;;;1.38;;
19547;SDS011;9919;58.014;11.826;2022-07-01T03:04:53;1.20;;;1.17;;
19547;SDS011;9919;58.014;11.826;2022-07-01T03:06:55;1.48;;;1.00;;
19547;SDS011;9919;58.014;11.826;2022-07-01T03:08:57;1.20;;;1.20;;
19547;SDS011;9919;58.014;11.826;2022-07-01T03:10:58;1.35;;;1.33;;
19547;SDS011;9919;58.014;11.826;2022-07-01T03:13:00;1.67;;;1.58;;
19547;SDS011;9919;58.014;11.826;2022-07-01T03:15:03;1.60;;;1.50;;
19547;SDS011;9919;58.014;11.826;2022-07-01T03:17:05;1.50;;;1.40;;
19547;SDS011;9919;58.014;11.826;2022-07-01T03:19:06;1.58;;;1.40;;
19547;SDS011;9919;58.014;11.826;2022-07-01T03:21:08;1.27;;;1.17;;
19547;SDS011;9919;58.014;11.826;2022-07-01T03:23:10;1.80;;;1.70;;
19547;SDS011;9919;58.014;11.826;2022-07-01T03:25:11;2.63;;;1.40;;
19547;SDS011;9919;58.014;11.826;2022-07-01T03:27:13;1.60;;;1.50;;
19547;SDS011;9919;58.014;11.826;2022-07-01T03:29:14;1.55;;;1.45;;
19547;SDS011;9919;58.014;11.826;2022-07-01T03:31:16;1.52;;;1.42;;
19547;SDS011;9919;58.014;11.826;2022-07-01T03:33:17;1.55;;;1.45;;
19547;SDS011;9919;58.014;11.826;2022-07-01T03:35:19;4.10;;;1.60;;
19547;SDS011;9919;58.014;11.826;2022-07-01T03:37:36;1.75;;;1.65;;
19547;SDS011;9919;58.014;11.826;2022-07-01T03:39:37;1.50;;;1.40;;
19547;SDS011;9919;58.014;11.826;2022-07-01T03:41:39;1.60;;;1.50;;
19547;SDS011;9919;58.014;11.826;2022-07-01T03:43:40;1.30;;;1.20;;
19547;SDS011;9919;58.014;11.826;2022-07-01T03:45:41;1.30;;;1.30;;
19547;SDS011;9919;58.014;11.826;2022-07-01T03:47:46;1.35;;;1.25;;
19547;SDS011;9919;58.014;11.826;2022-07-01T03:49:48;1.20;;;1.10;;
19547;SDS011;9919;58.014;11.826;2022-07-01T03:51:50;1.35;;;1.20;;
19547;SDS011;9919;58.014;11.826;2022-07-01T03:53:51;1.90;;;1.80;;
19547;SDS011;9919;58.014;11.826;2022-07-01T03:56:11;1.48;;;1.42;;
19547;SDS011;9919;58.014;11.826;2022-07-01T03:58:13;1.70;;;1.60;;
19547;SDS011;9919;58.014;11.826;2022-07-01T04:00:15;3.13;;;1.50;;
19547;SDS011;9919;58.014;11.826;2022-07-01T04:02:17;1.70;;;1.60;;
19547;SDS011;9919;58.014;11.826;2022-07-01T04:04:18;1.50;;;1.40;;
19547;SDS011;9919;58.014;11.826;2022-07-01T04:06:20;1.58;;;1.20;;
19547;SDS011;9919;58.014;11.826;2022-07-01T04:08:21;2.17;;;1.50;;
19547;SDS011;9919;58.014;11.826;2022-07-01T04:10:23;1.70;;;1.60;;
19547;SDS011;9919;58.014;11.826;2022-07-01T04:12:24;1.25;;;1.25;;
19547;SDS011;9919;58.014;11.826;2022-07-01T04:14:26;1.58;;;1.48;;
19547;SDS011;9919;58.014;11.826;2022-07-01T04:16:28;1.60;;;1.50;;
19547;SDS011;9919;58.014;11.826;2022-07-01T04:18:30;1.90;;;1.80;;
19547;SDS011;9919;58.014;11.826;2022-07-01T04:20:31;1.60;;;1.50;;
19547;SDS011;9919;58.014;11.826;2022-07-01T04:22:33;1.20;;;1.20;;
19547;SDS011;9919;58.014;11.826;2022-07-01T04:24:35;1.33;;;1.23;;
19547;SDS011;9919;58.014;11.826;2022-07-01T04:26:39;1.40;;;1.30;;
19547;SDS011;9919;58.014;11.826;2022-07-01T04:28:40;1.40;;;1.30;;
19547;SDS011;9919;58.014;11.826;2022-07-01T04:30:42;1.42;;;1.38;;
19547;SDS011;9919;58.014;11.826;2022-07-01T04:32:45;2.47;;;1.63;;
19547;SDS011;9919;58.014;11.826;2022-07-01T04:34:47;1.42;;;1.30;;
19547;SDS011;9919;58.014;11.826;2022-07-01T04:36:48;2.08;;;1.88;;
19547;SDS011;9919;58.014;11.826;2022-07-01T04:38:49;1.73;;;1.60;;
19547;SDS011;9919;58.014;11.826;2022-07-01T04:40:50;1.90;;;1.80;;
19547;SDS011;9919;58.014;11.826;2022-07-01T04:43:10;2.90;;;1.88;;
19547;SDS011;9919;58.014;11.826;2022-07-01T04:45:12;1.80;;;1.70;;
19547;SDS011;9919;58.014;11.826;2022-07-01T04:47:13;1.58;;;1.48;;
19547;SDS011;9919;58.014;11.826;2022-07-01T04:49:14;2.13;;;1.48;;
19547;SDS011;9919;58.014;11.826;2022-07-01T04:51:16;1.73;;;1.50;;
19547;SDS011;9919;58.014;11.826;2022-07-01T04:53:17;1.75;;;1.58;;
19547;SDS011;9919;58.014;11.826;2022-07-01T04:55:20;1.70;;;1.60;;
19547;SDS011;9919;58.014;11.826;2022-07-01T04:57:22;2.03;;;1.55;;
19547;SDS011;9919;58.014;11.826;2022-07-01T04:59:23;1.60;;;1.50;;
19547;SDS011;9919;58.014;11.826;2022-07-01T05:01:25;1.73;;;1.63;;
19547;SDS011;9919;58.014;11.826;2022-07-01T05:03:26;2.13;;;1.50;;
19547;SDS011;9919;58.014;11.826;2022-07-01T05:05:28;2.08;;;1.70;;
19547;SDS011;9919;58.014;11.826;2022-07-01T05:07:29;1.50;;;1.40;;
19547;SDS011;9919;58.014;11.826;2022-07-01T05:09:31;1.83;;;1.70;;
19547;SDS011;9919;58.014;11.826;2022-07-01T05:11:33;1.60;;;1.50;;
19547;SDS011;9919;58.014;11.826;2022-07-01T05:13:34;1.60;;;1.50;;
19547;SDS011;9919;58.014;11.826;2022-07-01T05:15:36;1.80;;;1.70;;
19547;SDS011;9919;58.014;11.826;2022-07-01T05:17:37;1.77;;;1.67;;
19547;SDS011;9919;58.014;11.826;2022-07-01T05:19:57;1.30;;;1.30;;
19547;SDS011;9919;58.014;11.826;2022-07-01T05:22:17;1.70;;;1.60;;
19547;SDS011;9919;58.014;11.826;2022-07-01T05:24:18;2.85;;;1.50;;
19547;SDS011;9919;58.014;11.826;2022-07-01T05:26:19;1.58;;;1.48;;
19547;SDS011;9919;58.014;11.826;2022-07-01T05:28:21;1.70;;;1.60;;
19547;SDS011;9919;58.014;11.826;2022-07-01T05:30:22;1.90;;;1.80;;
19547;SDS011;9919;58.014;11.826;2022-07-01T05:32:24;2.00;;;1.85;;
19547;SDS011;9919;58.014;11.826;2022-07-01T05:34:26;1.40;;;1.40;;
19547;SDS011;9919;58.014;11.826;2022-07-01T05:36:27;2.42;;;1.73;;
19547;SDS011;9919;58.014;11.826;2022-07-01T05:38:29;1.58;;;1.48;;
19547;SDS011;9919;58.014;11.826;2022-07-01T05:40:31;1.75;;;1.65;;
19547;SDS011;9919;58.014;11.826;2022-07-01T05:42:33;1.83;;;1.73;;
19547;SDS011;9919;58.014;11.826;2022-07-01T05:44:34;1.83;;;1.50;;
19547;SDS011;9919;58.014;11.826;2022-07-01T05:46:36;2.53;;;1.60;;
19547;SDS011;9919;58.014;11.826;2022-07-01T05:48:37;1.60;;;1.60;;
19547;SDS011;9919;58.014;11.826;2022-07-01T05:50:39;3.92;;;1.67;;
19547;SDS011;9919;58.014;11.826;2022-07-01T05:52:41;1.70;;;1.60;;
19547;SDS011;9919;58.014;11.826;2022-07-01T05:54:44;1.67;;;1.58;;
19547;SDS011;9919;58.014;11.826;2022-07-01T05:56:45;1.92;;;1.83;;
19547;SDS011;9919;58.014;11.826;2022-07-01T05:58:47;1.45;;;1.35;;
19547;SDS011;9919;58.014;11.826;2022-07-01T06:00:48;1.70;;;1.60;;
19547;SDS011;9919;58.014;11.826;2022-07-01T06:02:50;1.95;;;1.85;;
19547;SDS011;9919;58.014;11.826;2022-07-01T06:04:52;1.70;;;1.60;;
19547;SDS011;9919;58.014;11.826;2022-07-01T06:06:53;1.48;;;1.40;;
19547;SDS011;9919;58.014;11.826;2022-07-01T06:08:55;1.70;;;1.60;;
19547;SDS011;9919;58.014;11.826;2022-07-01T06:10:56;1.65;;;1.52;;
19547;SDS011;9919;58.014;11.826;2022-07-01T06:12:57;1.70;;;1.60;;
19547;SDS011;9919;58.014;11.826;2022-07-01T06:14:59;1.40;;;1.30;;
19547;SDS011;9919;58.014;11.826;2022-07-01T06:17:00;1.30;;;1.30;;
19547;SDS011;9919;58.014;11.826;2022-07-01T06:19:01;2.15;;;1.45;;
19547;SDS011;9919;58.014;11.826;2022-07-01T06:21:04;1.67;;;1.58;;
19547;SDS011;9919;58.014;11.826;2022-07-01T06:23:06;1.38;;;1.27;;
19547;SDS011;9919;58.014;11.826;2022-07-01T06:25:07;1.40;;;1.30;;
19547;SDS011;9919;58.014;11.826;2022-07-01T06:27:08;1.50;;;1.40;;
19547;SDS011;9919;58.014;11.826;2022-07-01T06:29:10;1.38;;;1.10;;
19547;SDS011;9919;58.014;11.826;2022-07-01T06:31:13;1.35;;;1.27;;
19547;SDS011;9919;58.014;11.826;2022-07-01T06:33:15;1.60;;;1.50;;
19547;SDS011;9919;58.014;11.826;2022-07-01T06:35:16;1.58;;;1.48;;
19547;SDS011;9919;58.014;11.826;2022-07-01T06:37:18;1.45;;;1.35;;
19547;SDS011;9919;58.014;11.826;2022-07-01T06:39:21;1.52;;;1.42;;
19547;SDS011;9919;58.014;11.826;2022-07-01T06:41:23;1.38;;;1.35;;
19547;SDS011;9919;58.014;11.826;2022-07-01T06:43:27;1.42;;;1.33;;
19547;SDS011;9919;58.014;11.826;2022-07-01T06:45:28;1.27;;;1.23;;
19547;SDS011;9919;58.014;11.826;2022-07-01T06:47:30;1.48;;;1.30;;
19547;SDS011;9919;58.014;11.826;2022-07-01T06:49:31;1.20;;;1.20;;
19547;SDS011;9919;58.014;11.826;2022-07-01T06:51:32;2.28;;;1.38;;
19547;SDS011;9919;58.014;11.826;2022-07-01T06:53:34;1.35;;;1.27;;
19547;SDS011;9919;58.014;11.826;2022-07-01T06:55:35;1.70;;;1.60;;
19547;SDS011;9919;58.014;11.826;2022-07-01T06:57:36;1.65;;;1.45;;
19547;SDS011;9919;58.014;11.826;2022-07-01T06:59:37;2.10;;;1.50;;
19547;SDS011;9919;58.014;11.826;2022-07-01T07:01:39;2.33;;;1.70;;
19547;SDS011;9919;58.014;11.826;2022-07-01T07:03:40;3.78;;;1.25;;
19547;SDS011;9919;58.014;11.826;2022-07-01T07:05:42;2.92;;;1.20;;
19547;SDS011;9919;58.014;11.826;2022-07-01T07:07:44;1.00;;;1.00;;
19547;SDS011;9919;58.014;11.826;2022-07-01T07:09:45;1.27;;;1.27;;
19547;SDS011;9919;58.014;11.826;2022-07-01T07:11:47;1.65;;;1.55;;
19547;SDS011;9919;58.014;11.826;2022-07-01T07:13:48;4.05;;;1.33;;
19547;SDS011;9919;58.014;11.826;2022-07-01T07:15:52;1.67;;;1.42;;
19547;SDS011;9919;58.014;11.826;2022-07-01T07:17:54;2.80;;;1.42;;
19547;SDS011;9919;58.014;11.826;2022-07-01T07:19:57;1.25;;;1.17;;
19547;SDS011;9919;58.014;11.826;2022-07-01T07:21:58;2.53;;;1.30;;
19547;SDS011;9919;58.014;11.826;2022-07-01T07:23:59;2.85;;;1.52;;
19547;SDS011;9919;58.014;11.826;2022-07-01T07:26:01;2.13;;;1.40;;
19547;SDS011;9919;58.014;11.826;2022-07-01T07:28:03;2.25;;;1.50;;
19547;SDS011;9919;58.014;11.826;2022-07-01T07:30:04;2.97;;;1.50;;
19547;SDS011;9919;58.014;11.826;2022-07-01T07:32:06;2.40;;;1.70;;
19547;SDS011;9919;58.014;11.826;2022-07-01T07:34:07;4.82;;;1.50;;
19547;SDS011;9919;58.014;11.826;2022-07-01T07:36:09;1.25;;;1.20;;
19547;SDS011;9919;58.014;11.826;2022-07-01T07:38:10;1.40;;;1.30;;
19547;SDS011;9919;58.014;11.826;2022-07-01T07:40:11;0.93;;;0.93;;
19547;SDS011;9919;58.014;11.826;2022-07-01T07:42:17;2.03;;;1.00;;
19547;SDS011;9919;58.014;11.826;2022-07-01T07:44:19;2.03;;;1.20;;
19547;SDS011;9919;58.014;11.826;2022-07-01T07:46:20;1.08;;;1.05;;
19547;SDS011;9919;58.014;11.826;2022-07-01T07:48:21;1.50;;;1.20;;
19547;SDS011;9919;58.014;11.826;2022-07-01T07:50:23;1.17;;;1.08;;
19547;SDS011;9919;58.014;11.826;2022-07-01T07:52:24;2.03;;;0.88;;
19547;SDS011;9919;58.014;11.826;2022-07-01T07:54:26;1.02;;;1.00;;
19547;SDS011;9919;58.014;11.826;2022-07-01T07:56:27;1.10;;;1.00;;
19547;SDS011;9919;58.014;11.826;2022-07-01T07:58:29;1.25;;;1.20;;
19547;SDS011;9919;58.014;11.826;2022-07-01T08:00:30;0.88;;;0.88;;
19547;SDS011;9919;58.014;11.826;2022-07-01T08:02:31;0.85;;;0.85;;
19547;SDS011;9919;58.014;11.826;2022-07-01T08:04:33;0.80;;;0.80;;
19547;SDS011;9919;58.014;11.826;2022-07-01T08:06:34;0.88;;;0.88;;
19547;SDS011;9919;58.014;11.826;2022-07-01T08:08:35;1.67;;;1.00;;
19547;SDS011;9919;58.014;11.826;2022-07-01T08:10:37;1.67;;;1.00;;
19547;SDS011;9919;58.014;11.826;2022-07-01T08:12:38;1.23;;;1.10;;
19547;SDS011;9919;58.014;11.826;2022-07-01T08:14:40;1.20;;;1.20;;
19547;SDS011;9919;58.014;11.826;2022-07-01T08:16:41;1.85;;;0.90;;
19547;SDS011;9919;58.014;11.826;2022-07-01T08:18:43;0.90;;;0.90;;
19547;SDS011;9919;58.014;11.826;2022-07-01T08:20:44;0.70;;;0.70;;
19547;SDS011;9919;58.014;11.826;2022-07-01T08:22:46;0.80;;;0.80;;
19547;SDS011;9919;58.014;11.826;2022-07-01T08:24:47;0.55;;;0.55;;
19547;SDS011;9919;58.014;11.826;2022-07-01T08:26:49;0.80;;;0.80;;
19547;SDS011;9919;58.014;11.826;2022-07-01T08:28:50;1.85;;;0.85;;
19547;SDS011;9919;58.014;11.826;2022-07-01T08:30:53;0.90;;;0.90;;
19547;SDS011;9919;58.014;11.826;2022-07-01T08:32:54;0.55;;;0.55;;
19547;SDS011;9919;58.014;11.826;2022-07-01T08:34:55;0.95;;;0.77;;
19547;SDS011;9919;58.014;11.826;2022-07-01T08:36:56;0.80;;;0.80;;
19547;SDS011;9919;58.014;11.826;2022-07-01T08:38:58;0.63;;;0.63;;
19547;SDS011;9919;58.014;11.826;2022-07-01T08:40:59;0.60;;;0.60;;
19547;SDS011;9919;58.014;11.826;2022-07-01T08:43:05;0.65;;;0.65;;
19547;SDS011;9919;58.014;11.826;2022-07-01T08:45:07;1.05;;;0.80;;
19547;SDS011;9919;58.014;11.826;2022-07-01T08:47:12;1.20;;;1.20;;
19547;SDS011;9919;58.014;11.826;2022-07-01T08:49:14;0.73;;;0.73;;
19547;SDS011;9919;58.014;11.826;2022-07-01T08:51:16;1.02;;;1.02;;
19547;SDS011;9919;58.014;11.826;2022-07-01T08:53:18;0.95;;;0.95;;
19547;SDS011;9919;58.014;11.826;2022-07-01T08:55:19;0.93;;;0.93;;
19547;SDS011;9919;58.014;11.826;2022-07-01T08:57:21;0.70;;;0.70;;
19547;SDS011;9919;58.014;11.826;2022-07-01T08:59:25;1.60;;;0.52;;
19547;SDS011;9919;58.014;11.826;2022-07-01T09:01:26;0.80;;;0.80;;
19547;SDS011;9919;58.014;11.826;2022-07-01T09:03:28;0.65;;;0.60;;
19547;SDS011;9919;58.014;11.826;2022-07-01T09:05:30;0.57;;;0.57;;
19547;SDS011;9919;58.014;11.826;2022-07-01T09:07:31;0.85;;;0.85;;
19547;SDS011;9919;58.014;11.826;2022-07-01T09:09:37;0.70;;;0.70;;
19547;SDS011;9919;58.014;11.826;2022-07-01T09:11:45;0.40;;;0.40;;
19547;SDS011;9919;58.014;11.826;2022-07-01T09:14:06;0.68;;;0.68;;
19547;SDS011;9919;58.014;11.826;2022-07-01T09:16:12;0.60;;;0.60;;
19547;SDS011;9919;58.014;11.826;2022-07-01T09:18:16;0.88;;;0.88;;
19547;SDS011;9919;58.014;11.826;2022-07-01T09:20:24;0.70;;;0.70;;
19547;SDS011;9919;58.014;11.826;2022-07-01T09:22:27;0.60;;;0.60;;
19547;SDS011;9919;58.014;11.826;2022-07-01T09:24:35;0.68;;;0.68;;
19547;SDS011;9919;58.014;11.826;2022-07-01T09:26:37;0.90;;;0.88;;
19547;SDS011;9919;58.014;11.826;2022-07-01T09:28:40;0.70;;;0.70;;
19547;SDS011;9919;58.014;11.826;2022-07-01T09:30:42;0.88;;;0.75;;
19547;SDS011;9919;58.014;11.826;2022-07-01T09:32:45;0.70;;;0.70;;
19547;SDS011;9919;58.014;11.826;2022-07-01T09:35:03;0.90;;;0.85;;
19547;SDS011;9919;58.014;11.826;2022-07-01T09:37:05;0.70;;;0.70;;
19547;SDS011;9919;58.014;11.826;2022-07-01T09:39:07;0.60;;;0.60;;
19547;SDS011;9919;58.014;11.826;2022-07-01T09:41:08;0.52;;;0.52;;
19547;SDS011;9919;58.014;11.826;2022-07-01T09:43:15;0.63;;;0.63;;
19547;SDS011;9919;58.014;11.826;2022-07-01T09:45:20;0.45;;;0.45;;
19547;SDS011;9919;58.014;11.826;2022-07-01T09:47:24;1.85;;;0.70;;
19547;SDS011;9919;58.014;11.826;2022-07-01T09:49:26;1.08;;;0.60;;
19547;SDS011;9919;58.014;11.826;2022-07-01T09:51:28;0.50;;;0.50;;
19547;SDS011;9919;58.014;11.826;2022-07-01T09:53:29;0.60;;;0.60;;
19547;SDS011;9919;58.014;11.826;2022-07-01T09:55:31;0.50;;;0.50;;
19547;SDS011;9919;58.014;11.826;2022-07-01T09:57:33;0.93;;;0.93;;
19547;SDS011;9919;58.014;11.826;2022-07-01T09:59:36;0.85;;;0.85;;
19547;SDS011;9919;58.014;11.826;2022-07-01T10:01:37;0.60;;;0.60;;
19547;SDS011;9919;58.014;11.826;2022-07-01T10:03:40;0.70;;;0.68;;
19547;SDS011;9919;58.014;11.826;2022-07-01T10:12:49;2.58;;;0.80;;
19547;SDS011;9919;58.014;11.826;2022-07-01T10:14:56;1.27;;;0.80;;
19547;SDS011;9919;58.014;11.826;2022-07-01T10:16:59;0.90;;;0.90;;
19547;SDS011;9919;58.014;11.826;2022-07-01T10:21:26;0.70;;;0.70;;
19547;SDS011;9919;58.014;11.826;2022-07-01T10:23:36;0.52;;;0.52;;
19547;SDS011;9919;58.014;11.826;2022-07-01T10:25:43;0.55;;;0.52;;
19547;SDS011;9919;58.014;11.826;2022-07-01T10:27:46;0.73;;;0.38;;
19547;SDS011;9919;58.014;11.826;2022-07-01T10:30:14;0.80;;;0.80;;
19547;SDS011;9919;58.014;11.826;2022-07-01T10:34:22;0.65;;;0.55;;
19547;SDS011;9919;58.014;11.826;2022-07-01T10:38:27;0.75;;;0.75;;
19547;SDS011;9919;58.014;11.826;2022-07-01T10:40:41;0.70;;;0.70;;
19547;SDS011;9919;58.014;11.826;2022-07-01T10:42:58;0.82;;;0.82;;
19547;SDS011;9919;58.014;11.826;2022-07-01T10:45:06;0.60;;;0.60;;
19547;SDS011;9919;58.014;11.826;2022-07-01T10:47:11;0.70;;;0.70;;
19547;SDS011;9919;58.014;11.826;2022-07-01T10:49:17;0.70;;;0.70;;
19547;SDS011;9919;58.014;11.826;2022-07-01T10:53:46;0.80;;;0.80;;
19547;SDS011;9919;58.014;11.826;2022-07-01T10:55:48;1.63;;;0.90;;
19547;SDS011;9919;58.014;11.826;2022-07-01T10:57:52;0.63;;;0.63;;
19547;SDS011;9919;58.014;11.826;2022-07-01T11:02:09;0.70;;;0.70;;
19547;SDS011;9919;58.014;11.826;2022-07-01T11:04:14;0.60;;;0.60;;
19547;SDS011;9919;58.014;11.826;2022-07-01T11:06:16;0.50;;;0.50;;
19547;SDS011;9919;58.014;11.826;2022-07-01T11:08:18;0.40;;;0.40;;
19547;SDS011;9919;58.014;11.826;2022-07-01T11:10:19;0.73;;;0.60;;
19547;SDS011;9919;58.014;11.826;2022-07-01T11:12:21;0.60;;;0.60;;
19547;SDS011;9919;58.014;11.826;2022-07-01T11:14:25;0.70;;;0.70;;
19547;SDS011;9919;58.014;11.826;2022-07-01T11:16:29;0.80;;;0.80;;
19547;SDS011;9919;58.014;11.826;2022-07-01T11:18:31;0.60;;;0.60;;
19547;SDS011;9919;58.014;11.826;2022-07-01T11:20:32;0.90;;;0.90;;
19547;SDS011;9919;58.014;11.826;2022-07-01T11:22:34;0.70;;;0.70;;
19547;SDS011;9919;58.014;11.826;2022-07-01T11:24:35;0.70;;;0.70;;
19547;SDS011;9919;58.014;11.826;2022-07-01T11:26:37;0.80;;;0.80;;
19547;SDS011;9919;58.014;11.826;2022-07-01T11:28:41;0.93;;;0.80;;
19547;SDS011;9919;58.014;11.826;2022-07-01T11:30:42;0.80;;;0.80;;
19547;SDS011;9919;58.014;11.826;2022-07-01T11:32:45;0.90;;;0.90;;
19547;SDS011;9919;58.014;11.826;2022-07-01T11:34:48;0.80;;;0.80;;
19547;SDS011;9919;58.014;11.826;2022-07-01T11:36:50;2.08;;;1.08;;
19547;SDS011;9919;58.014;11.826;2022-07-01T11:39:10;0.70;;;0.70;;
19547;SDS011;9919;58.014;11.826;2022-07-01T11:41:24;0.63;;;0.63;;
19547;SDS011;9919;58.014;11.826;2022-07-01T11:43:33;0.43;;;0.43;;
19547;SDS011;9919;58.014;11.826;2022-07-01T11:45:38;0.43;;;0.43;;
19547;SDS011;9919;58.014;11.826;2022-07-01T11:47:41;1.30;;;0.50;;
19547;SDS011;9919;58.014;11.826;2022-07-01T11:49:45;0.60;;;0.60;;
19547;SDS011;9919;58.014;11.826;2022-07-01T11:51:53;0.75;;;0.75;;
19547;SDS011;9919;58.014;11.826;2022-07-01T11:54:02;0.77;;;0.77;;
19547;SDS011;9919;58.014;11.826;2022-07-01T11:56:04;1.27;;;0.70;;
19547;SDS011;9919;58.014;11.826;2022-07-01T11:58:05;0.70;;;0.70;;
19547;SDS011;9919;58.014;11.826;2022-07-01T12:00:08;0.70;;;0.70;;
19547;SDS011;9919;58.014;11.826;2022-07-01T12:02:11;0.63;;;0.63;;
19547;SDS011;9919;58.014;11.826;2022-07-01T12:04:14;0.80;;;0.80;;
19547;SDS011;9919;58.014;11.826;2022-07-01T12:06:16;0.70;;;0.70;;
19547;SDS011;9919;58.014;11.826;2022-07-01T12:08:19;0.90;;;0.90;;
19547;SDS011;9919;58.014;11.826;2022-07-01T12:10:24;0.90;;;0.90;;
19547;SDS011;9919;58.014;11.826;2022-07-01T12:12:26;0.80;;;0.80;;
19547;SDS011;9919;58.014;11.826;2022-07-01T12:14:29;1.00;;;1.00;;
19547;SDS011;9919;58.014;11.826;2022-07-01T12:16:40;1.00;;;1.00;;
19547;SDS011;9919;58.014;11.826;2022-07-01T12:19:00;0.77;;;0.77;;
19547;SDS011;9919;58.014;11.826;2022-07-01T12:21:02;0.80;;;0.80;;
19547;SDS011;9919;58.014;11.826;2022-07-01T12:23:10;0.77;;;0.77;;
19547;SDS011;9919;58.014;11.826;2022-07-01T12:25:14;0.70;;;0.70;;
19547;SDS011;9919;58.014;11.826;2022-07-01T12:27:16;0.60;;;0.60;;
19547;SDS011;9919;58.014;11.826;2022-07-01T12:29:22;0.65;;;0.65;;
19547;SDS011;9919;58.014;11.826;2022-07-01T12:31:23;1.05;;;0.90;;
19547;SDS011;9919;58.014;11.826;2022-07-01T12:33:26;0.77;;;0.77;;
19547;SDS011;9919;58.014;11.826;2022-07-01T12:35:27;0.60;;;0.60;;
19547;SDS011;9919;58.014;11.826;2022-07-01T12:37:35;1.67;;;0.90;;